Augusta, Texas
Current Conditions -  °F | °C
As of 12:35 PM on Monday 20 Oct 2014 (Local Time) from KDKR Reporting Station
Clear Clear  
Wind Chill: 26°   Ceiling: Unl
Heat Index: 27°   Visibility: 10mi
Dew Point: 17°   Wind: 5mph
Humidity: 57%   Direction: 330°NNW
Pressure: 30.11"   Gusts: NA
Location:  31.4982°N, 95.4177°W
Report Text: KDKR 201735Z AUTO 33004KT 10SM CLR 26/17 A3011 RMK AO2
Loading
Personal Weather Stations






























Interactive Weather Map
Tropical Storm Tracking
New forecast layout! Learn more

10-Day Weather Forecast

Advertisements
Track Severe Weather on mobile